Station Historical Data
Daily Summary for May 13, 2012 Units:  English    Metric   Both
« Previous Day
Next Day »
Daily Weekly Monthly Yearly Custom
  High: Low: Average:
Temperature: 69.8 °F 61.1 °F 65 °F
Dew Point: 66.8 °F 59.4 °F 62.9 °F
Humidity: 94% 89% 93%
Wind Speed: 15.0mph 0.0mph 5.3mph
Wind Gust: 15.0mph - -
Wind- - South
Pressure: 30.06 in 29.91 in -
Precipitation: 0.99 in    
Historical Graphs
 
 
Tabular Data for May 13, 2012
Time Temperature Dew Point Pressure Wind Wind Speed Wind Gust Humidity Rainfall Rate (Hourly) Conditions
00:00 63.8 °F 61.7 °F 30.06 in NE 2.0 mph 4.0 mph 93% 0.00 in
00:05 63.7 °F 61.6 °F 30.06 in East 2.0 mph 4.0 mph 93% 0.00 in
00:10 63.8 °F 61.7 °F 30.06 in ENE 2.0 mph 2.0 mph 93% 0.00 in
00:15 63.7 °F 61.6 °F 30.06 in ESE 2.0 mph 2.0 mph 93% 0.00 in
00:20 63.7 °F 61.6 °F 30.06 in ESE 2.0 mph 7.0 mph 93% 0.00 in
00:25 63.7 °F 61.6 °F 30.06 in East 1.0 mph 3.0 mph 93% 0.00 in
00:30 63.7 °F 61.6 °F 30.06 in East 2.0 mph 3.0 mph 93% 0.26 in
00:35 63.7 °F 61.6 °F 30.05 in ESE 3.0 mph 3.0 mph 93% 0.09 in
00:40 63.7 °F 62.0 °F 30.05 in ESE 2.0 mph 2.0 mph 94% 0.09 in
00:45 63.6 °F 61.8 °F 30.05 in ESE 1.0 mph 2.0 mph 94% 0.06 in
00:50 63.6 °F 61.8 °F 30.05 in East 1.0 mph 2.0 mph 94% 0.04 in
00:55 63.6 °F 61.8 °F 30.05 in East 2.0 mph 4.0 mph 94% 0.51 in
01:00 63.6 °F 61.8 °F 30.04 in ENE 3.0 mph 4.0 mph 94% 0.22 in
01:06 63.5 °F 61.8 °F 30.04 in NNE 2.0 mph 4.0 mph 94% 0.26 in
01:11 63.5 °F 61.8 °F 30.04 in ENE 2.0 mph 3.0 mph 94% 0.19 in
01:16 63.5 °F 61.8 °F 30.04 in ENE 3.0 mph 3.0 mph 94% 0.31 in
01:21 63.5 °F 61.8 °F 30.04 in East 1.0 mph 4.0 mph 94% 0.30 in
01:26 63.5 °F 61.8 °F 30.04 in ENE 4.0 mph 6.0 mph 94% 0.24 in
01:31 63.6 °F 61.8 °F 30.04 in East 5.0 mph 5.0 mph 94% 0.11 in
01:36 63.6 °F 61.8 °F 30.03 in East 4.0 mph 6.0 mph 94% 0.16 in
01:41 63.6 °F 61.8 °F 30.04 in SE 5.0 mph 7.0 mph 94% 0.23 in
01:46 63.6 °F 61.8 °F 30.03 in East 8.0 mph 9.0 mph 94% 0.31 in
01:51 63.6 °F 61.8 °F 30.03 in SE 5.0 mph 14.0 mph 94% 0.08 in
01:56 63.7 °F 62.0 °F 30.03 in ESE 11.0 mph 14.0 mph 94% 0.07 in
02:01 63.7 °F 62.0 °F 30.02 in SE 8.0 mph 12.0 mph 94% 0.09 in
02:02 63.7 °F 62.0 °F 30.02 in East 7.0 mph 10.0 mph 94% 0.09 in
02:07 63.7 °F 61.6 °F 30.02 in SE 10.0 mph 12.0 mph 93% 0.11 in
02:12 63.8 °F 61.7 °F 30.02 in SSE 4.0 mph 11.0 mph 93% 0.06 in
02:17 63.8 °F 61.7 °F 30.02 in ESE 6.0 mph 12.0 mph 93% 0.04 in
02:22 63.8 °F 61.7 °F 30.02 in ESE 6.0 mph 14.0 mph 93% 0.00 in
02:27 63.8 °F 61.7 °F 30.01 in ESE 10.0 mph 12.0 mph 93% 0.00 in
02:32 63.7 °F 61.6 °F 30.01 in ESE 7.0 mph 9.0 mph 93% 0.00 in
02:37 63.7 °F 61.6 °F 30.01 in ESE 4.0 mph 14.0 mph 93% 0.00 in
02:42 63.7 °F 61.6 °F 30.01 in ESE 6.0 mph 9.0 mph 93% 0.00 in
02:47 63.7 °F 61.6 °F 30.01 in ESE 9.0 mph 9.0 mph 93% 0.00 in
02:52 63.7 °F 61.6 °F 30.01 in SE 7.0 mph 11.0 mph 93% 0.04 in
02:53 63.7 °F 61.6 °F 30.00 in SE 7.0 mph 11.0 mph 93% 0.04 in
02:58 63.8 °F 61.7 °F 30.00 in ESE 7.0 mph 9.0 mph 93% 0.04 in
03:03 63.8 °F 61.7 °F 30.00 in ESE 4.0 mph 9.0 mph 93% 0.04 in
03:08 63.8 °F 61.7 °F 30.00 in SE 9.0 mph 9.0 mph 93% 0.04 in
03:13 63.7 °F 61.6 °F 30.00 in ESE 6.0 mph 7.0 mph 93% 0.16 in
03:18 63.7 °F 61.6 °F 29.99 in SE 7.0 mph 9.0 mph 93% 0.07 in
03:23 63.8 °F 61.7 °F 29.99 in ESE 8.0 mph 10.0 mph 93% 0.05 in
03:28 63.8 °F 61.7 °F 29.99 in ESE 6.0 mph 9.0 mph 93% 0.00 in
03:33 63.8 °F 61.7 °F 29.99 in SE 6.0 mph 10.0 mph 93% 0.00 in
03:38 63.9 °F 61.8 °F 29.99 in SE 9.0 mph 13.0 mph 93% 0.00 in
03:43 64.0 °F 61.9 °F 29.98 in ESE 9.0 mph 12.0 mph 93% 0.00 in
03:48 64.0 °F 61.9 °F 29.98 in SE 7.0 mph 11.0 mph 93% 0.00 in
03:53 64.1 °F 62.0 °F 29.99 in SE 15.0 mph 15.0 mph 93% 0.00 in
03:58 64.1 °F 62.0 °F 29.99 in SE 6.0 mph 12.0 mph 93% 0.00 in
04:03 64.1 °F 62.0 °F 29.98 in ESE 7.0 mph 10.0 mph 93% 0.00 in
04:08 64.1 °F 62.0 °F 29.98 in ESE 11.0 mph 11.0 mph 93% 0.00 in
04:13 64.1 °F 62.0 °F 29.98 in ESE 6.0 mph 10.0 mph 93% 0.00 in
04:18 64.1 °F 62.0 °F 29.98 in ESE 10.0 mph 10.0 mph 93% 0.00 in
04:23 64.1 °F 62.0 °F 29.98 in ESE 11.0 mph 12.0 mph 93% 0.00 in
04:28 64.1 °F 62.0 °F 29.98 in SE 7.0 mph 11.0 mph 93% 0.00 in
04:33 64.2 °F 62.1 °F 29.98 in SE 7.0 mph 12.0 mph 93% 0.00 in
04:39 64.2 °F 62.1 °F 29.98 in SE 8.0 mph 11.0 mph 93% 0.00 in
04:44 64.2 °F 62.1 °F 29.98 in SE 7.0 mph 12.0 mph 93% 0.00 in
04:49 64.2 °F 62.1 °F 29.98 in SE 7.0 mph 11.0 mph 93% 0.00 in
04:54 64.2 °F 62.1 °F 29.98 in ESE 10.0 mph 12.0 mph 93% 0.00 in
04:59 64.2 °F 62.1 °F 29.97 in SE 8.0 mph 10.0 mph 93% 0.00 in
05:04 64.2 °F 62.1 °F 29.97 in ESE 8.0 mph 12.0 mph 93% 0.00 in
05:09 64.2 °F 62.1 °F 29.97 in SE 10.0 mph 10.0 mph 93% 0.00 in
05:14 64.2 °F 62.1 °F 29.97 in SE 5.0 mph 12.0 mph 93% 0.00 in
05:19 64.2 °F 62.1 °F 29.97 in SE 4.0 mph 13.0 mph 93% 0.00 in
05:24 64.2 °F 62.1 °F 29.97 in ESE 13.0 mph 15.0 mph 93% 0.00 in
05:29 64.2 °F 62.1 °F 29.97 in SE 8.0 mph 10.0 mph 93% 0.00 in
05:34 64.2 °F 62.1 °F 29.97 in SE 6.0 mph 10.0 mph 93% 0.00 in
05:39 64.2 °F 62.1 °F 29.97 in ESE 8.0 mph 10.0 mph 93% 0.00 in
05:44 64.2 °F 62.1 °F 29.97 in SE 7.0 mph 10.0 mph 93% 0.00 in
05:49 64.2 °F 62.1 °F 29.97 in ESE 8.0 mph 11.0 mph 93% 0.00 in
05:54 64.2 °F 62.1 °F 29.97 in SSE 8.0 mph 12.0 mph 93% 0.00 in
05:59 64.2 °F 62.1 °F 29.97 in SE 8.0 mph 9.0 mph 93% 0.00 in
06:04 64.2 °F 62.1 °F 29.97 in SE 9.0 mph 15.0 mph 93% 0.00 in
06:09 64.2 °F 62.1 °F 29.97 in SE 9.0 mph 11.0 mph 93% 0.07 in
06:14 64.2 °F 62.1 °F 29.97 in SE 8.0 mph 11.0 mph 93% 0.07 in
06:19 64.1 °F 62.0 °F 29.97 in SE 6.0 mph 9.0 mph 93% 0.10 in
06:24 64.1 °F 62.0 °F 29.97 in ESE 10.0 mph 11.0 mph 93% 0.13 in
06:29 64.1 °F 62.0 °F 29.97 in SE 5.0 mph 12.0 mph 93% 0.06 in
06:34 64.1 °F 62.0 °F 29.97 in ESE 8.0 mph 11.0 mph 93% 0.18 in
06:39 64.1 °F 62.0 °F 29.97 in SE 8.0 mph 11.0 mph 93% 0.35 in
06:44 64.1 °F 62.0 °F 29.97 in SE 6.0 mph 12.0 mph 93% 0.44 in
06:50 64.1 °F 62.0 °F 29.98 in SE 6.0 mph 11.0 mph 93% 0.17 in
06:55 64.1 °F 62.0 °F 29.98 in SSE 7.0 mph 14.0 mph 93% 0.13 in
07:00 64.1 °F 62.0 °F 29.98 in SSE 7.0 mph 13.0 mph 93% 0.25 in
07:05 64.1 °F 62.0 °F 29.98 in SSE 6.0 mph 10.0 mph 93% 0.19 in
07:10 64.0 °F 61.9 °F 29.98 in SE 9.0 mph 15.0 mph 93% 0.13 in
07:15 64.0 °F 61.9 °F 29.98 in ESE 7.0 mph 13.0 mph 93% 0.08 in
07:20 64.0 °F 61.9 °F 29.98 in SE 7.0 mph 9.0 mph 93% 0.05 in
07:25 64.1 °F 62.0 °F 29.98 in SE 7.0 mph 12.0 mph 93% 0.00 in
07:30 64.1 °F 62.0 °F 29.98 in SSE 10.0 mph 13.0 mph 93% 0.00 in
07:35 64.0 °F 61.9 °F 29.98 in SSE 6.0 mph 11.0 mph 93% 0.00 in
07:40 64.0 °F 61.9 °F 29.98 in SE 4.0 mph 11.0 mph 93% 0.00 in
07:45 63.9 °F 61.8 °F 29.98 in ESE 9.0 mph 12.0 mph 93% 0.25 in
07:50 63.9 °F 61.8 °F 29.99 in SE 10.0 mph 13.0 mph 93% 0.16 in
07:55 63.9 °F 61.8 °F 29.99 in SE 8.0 mph 13.0 mph 93% 0.24 in
07:56 63.9 °F 61.8 °F 29.99 in SSE 8.0 mph 13.0 mph 93% 0.24 in
08:01 63.9 °F 61.8 °F 29.99 in SSE 11.0 mph 14.0 mph 93% 0.24 in
08:06 63.9 °F 61.8 °F 29.99 in SE 7.0 mph 12.0 mph 93% 0.13 in
08:11 63.9 °F 61.8 °F 29.99 in SE 8.0 mph 12.0 mph 93% 0.18 in
08:16 63.9 °F 61.8 °F 29.98 in SE 6.0 mph 10.0 mph 93% 0.10 in
08:21 64.0 °F 61.9 °F 29.98 in SE 8.0 mph 10.0 mph 93% 0.07 in
08:26 64.0 °F 61.9 °F 29.98 in SE 4.0 mph 11.0 mph 93% 0.07 in
08:31 64.0 °F 61.9 °F 29.98 in SSE 5.0 mph 11.0 mph 93% 0.05 in
08:36 64.0 °F 61.9 °F 29.98 in SE 4.0 mph 9.0 mph 93% 0.00 in
08:41 64.1 °F 62.0 °F 29.99 in SE 8.0 mph 12.0 mph 93% 0.00 in
08:46 64.1 °F 62.0 °F 29.98 in SSE 7.0 mph 8.0 mph 93% 0.00 in
08:51 64.2 °F 62.1 °F 29.99 in SE 5.0 mph 9.0 mph 93% 0.00 in
08:56 64.2 °F 62.1 °F 29.99 in ESE 5.0 mph 10.0 mph 93% 0.00 in
09:01 64.2 °F 62.1 °F 29.99 in SE 6.0 mph 11.0 mph 93% 0.00 in
09:06 64.2 °F 62.1 °F 29.99 in SE 7.0 mph 10.0 mph 93% 0.00 in
09:11 64.3 °F 62.2 °F 29.99 in SE 9.0 mph 10.0 mph 93% 0.00 in
09:16 64.3 °F 62.2 °F 29.99 in SSE 7.0 mph 8.0 mph 93% 0.00 in
09:21 64.3 °F 62.2 °F 29.99 in SE 12.0 mph 12.0 mph 93% 0.00 in
09:26 64.3 °F 62.2 °F 29.99 in SE 8.0 mph 10.0 mph 93% 0.00 in
09:31 64.4 °F 62.3 °F 29.99 in SSE 8.0 mph 11.0 mph 93% 0.00 in
09:36 64.5 °F 62.4 °F 29.99 in SE 9.0 mph 12.0 mph 93% 0.00 in
09:41 64.5 °F 62.4 °F 29.99 in ESE 9.0 mph 10.0 mph 93% 0.00 in
09:46 64.5 °F 62.4 °F 29.99 in SE 5.0 mph 9.0 mph 93% 0.00 in
09:51 64.5 °F 62.4 °F 29.99 in SSE 8.0 mph 9.0 mph 93% 0.00 in
09:56 64.5 °F 62.4 °F 29.99 in SE 8.0 mph 10.0 mph 93% 0.00 in
10:01 64.5 °F 62.4 °F 29.99 in SE 5.0 mph 8.0 mph 93% 0.00 in
10:07 64.5 °F 62.4 °F 29.99 in SSE 8.0 mph 11.0 mph 93% 0.00 in
10:12 64.5 °F 62.4 °F 29.99 in SSW 5.0 mph 9.0 mph 93% 0.00 in
10:17 64.6 °F 62.5 °F 29.99 in SSW 7.0 mph 8.0 mph 93% 0.00 in
10:22 64.7 °F 62.6 °F 29.99 in SE 5.0 mph 5.0 mph 93% 0.00 in
10:27 64.7 °F 62.6 °F 29.99 in SE 5.0 mph 10.0 mph 93% 0.00 in
10:32 64.7 °F 62.6 °F 29.99 in SSE 7.0 mph 8.0 mph 93% 0.00 in
10:37 64.7 °F 62.6 °F 29.99 in SE 7.0 mph 10.0 mph 93% 0.00 in
10:42 64.8 °F 62.7 °F 29.99 in SE 7.0 mph 12.0 mph 93% 0.00 in
10:47 64.9 °F 62.8 °F 29.99 in SE 4.0 mph 8.0 mph 93% 0.00 in
10:52 65.0 °F 62.9 °F 29.99 in SE 7.0 mph 8.0 mph 93% 0.00 in
10:57 65.2 °F 63.1 °F 29.99 in SE 8.0 mph 8.0 mph 93% 0.00 in
11:02 65.2 °F 63.1 °F 29.99 in SE 6.0 mph 10.0 mph 93% 0.00 in
11:07 65.2 °F 63.1 °F 29.99 in SSE 8.0 mph 12.0 mph 93% 0.08 in
11:12 65.4 °F 63.3 °F 29.98 in SSE 6.0 mph 9.0 mph 93% 0.08 in
11:17 65.6 °F 63.5 °F 29.98 in SE 4.0 mph 9.0 mph 93% 0.05 in
11:22 65.8 °F 63.7 °F 29.98 in SSE 5.0 mph 9.0 mph 93% 0.04 in
11:27 65.9 °F 63.8 °F 29.98 in ESE 4.0 mph 12.0 mph 93% 0.00 in
11:32 65.9 °F 63.8 °F 29.98 in SE 7.0 mph 10.0 mph 93% 0.00 in
11:37 65.9 °F 63.8 °F 29.98 in SE 4.0 mph 8.0 mph 93% 0.00 in
11:42 65.9 °F 63.8 °F 29.98 in SE 3.0 mph 6.0 mph 93% 0.00 in
11:47 66.0 °F 63.9 °F 29.98 in SE 4.0 mph 6.0 mph 93% 0.00 in
11:52 66.0 °F 63.9 °F 29.98 in ESE 5.0 mph 8.0 mph 93% 0.00 in
11:57 66.1 °F 64.0 °F 29.98 in SSE 4.0 mph 5.0 mph 93% 0.00 in
12:02 66.1 °F 64.0 °F 29.98 in SE 6.0 mph 7.0 mph 93% 0.00 in
12:07 66.1 °F 64.0 °F 29.98 in SE 5.0 mph 7.0 mph 93% 0.00 in
12:13 66.2 °F 64.1 °F 29.98 in SE 5.0 mph 10.0 mph 93% 0.00 in
12:18 66.2 °F 64.1 °F 29.97 in SE 5.0 mph 10.0 mph 93% 0.00 in
12:23 66.4 °F 64.3 °F 29.97 in SSE 4.0 mph 9.0 mph 93% 0.00 in
12:28 66.7 °F 64.6 °F 29.97 in South 7.0 mph 8.0 mph 93% 0.00 in
12:33 66.8 °F 64.7 °F 29.97 in SE 5.0 mph 8.0 mph 93% 0.00 in
12:38 66.8 °F 64.7 °F 29.97 in SSE 5.0 mph 7.0 mph 93% 0.00 in
12:43 66.9 °F 64.8 °F 29.97 in South 4.0 mph 7.0 mph 93% 0.00 in
12:48 66.9 °F 64.8 °F 29.97 in SE 7.0 mph 7.0 mph 93% 0.00 in
12:53 66.7 °F 64.6 °F 29.97 in SE 4.0 mph 7.0 mph 93% 0.00 in
12:58 66.7 °F 64.6 °F 29.97 in SE 7.0 mph 7.0 mph 93% 0.00 in
13:03 66.6 °F 64.5 °F 29.97 in South 2.0 mph 5.0 mph 93% 0.00 in
13:08 66.5 °F 64.4 °F 29.96 in SSE 3.0 mph 6.0 mph 93% 0.00 in
13:14 66.4 °F 64.3 °F 29.96 in South 4.0 mph 7.0 mph 93% 0.18 in
13:18 66.3 °F 64.2 °F 29.96 in SE 6.0 mph 6.0 mph 93% 0.36 in
13:24 66.2 °F 64.1 °F 29.96 in SSE 6.0 mph 8.0 mph 93% 0.31 in
13:28 66.0 °F 63.9 °F 29.95 in SE 10.0 mph 11.0 mph 93% 1.03 in
13:33 66.1 °F 64.0 °F 29.95 in SE 7.0 mph 11.0 mph 93% 0.61 in
13:39 66.0 °F 63.9 °F 29.95 in SE 5.0 mph 7.0 mph 93% 0.53 in
13:44 66.1 °F 64.0 °F 29.95 in SE 5.0 mph 8.0 mph 93% 0.16 in
13:49 66.2 °F 64.1 °F 29.95 in SE 3.0 mph 7.0 mph 93% 0.07 in
13:54 66.6 °F 64.5 °F 29.95 in SE 7.0 mph 7.0 mph 93% 0.04 in
13:59 66.9 °F 64.8 °F 29.95 in ESE 7.0 mph 8.0 mph 93% 0.00 in
14:04 67.5 °F 65.4 °F 29.95 in ESE 4.0 mph 7.0 mph 93% 0.00 in
14:09 67.6 °F 65.2 °F 29.95 in SSE 7.0 mph 9.0 mph 92% 0.00 in
14:14 67.8 °F 65.7 °F 29.95 in SE 7.0 mph 8.0 mph 93% 0.00 in
14:19 67.8 °F 65.4 °F 29.95 in SE 6.0 mph 8.0 mph 92% 0.00 in
14:25 68.1 °F 65.7 °F 29.94 in ENE 5.0 mph 7.0 mph 92% 0.00 in
14:30 68.2 °F 65.8 °F 29.94 in SE 2.0 mph 8.0 mph 92% 0.00 in
14:35 68.3 °F 65.9 °F 29.94 in ESE 3.0 mph 7.0 mph 92% 0.00 in
14:40 67.9 °F 65.5 °F 29.94 in ESE 5.0 mph 6.0 mph 92% 0.00 in
14:45 67.7 °F 65.3 °F 29.94 in ENE 3.0 mph 5.0 mph 92% 0.00 in
14:50 67.4 °F 65.0 °F 29.94 in SE 4.0 mph 5.0 mph 92% 0.00 in
14:55 67.6 °F 65.2 °F 29.94 in SSE 5.0 mph 7.0 mph 92% 0.00 in
15:00 67.7 °F 65.3 °F 29.94 in East 3.0 mph 8.0 mph 92% 0.00 in
15:05 67.6 °F 65.2 °F 29.93 in SE 4.0 mph 7.0 mph 92% 0.00 in
15:10 67.7 °F 65.3 °F 29.93 in East 4.0 mph 6.0 mph 92% 0.00 in
15:15 67.9 °F 65.5 °F 29.93 in ESE 4.0 mph 6.0 mph 92% 0.00 in
15:21 67.7 °F 65.3 °F 29.93 in ESE 4.0 mph 5.0 mph 92% 0.00 in
15:26 67.8 °F 65.4 °F 29.93 in East 3.0 mph 4.0 mph 92% 0.00 in
15:31 67.7 °F 65.3 °F 29.93 in East 2.0 mph 4.0 mph 92% 0.00 in
15:36 67.8 °F 65.4 °F 29.92 in East 2.0 mph 3.0 mph 92% 0.00 in
15:41 67.9 °F 65.5 °F 29.92 in ESE 2.0 mph 3.0 mph 92% 0.00 in
15:46 68.1 °F 65.7 °F 29.92 in ENE 3.0 mph 4.0 mph 92% 0.00 in
15:51 68.2 °F 65.8 °F 29.92 in East 3.0 mph 4.0 mph 92% 0.00 in
15:56 68.6 °F 66.2 °F 29.92 in Calm   3.0 mph 92% 0.00 in
16:01 68.9 °F 66.2 °F 29.92 in Calm   3.0 mph 91% 0.00 in
16:06 69.5 °F 66.8 °F 29.92 in Calm   3.0 mph 91% 0.00 in
16:11 69.8 °F 66.7 °F 29.92 in NNW 2.0 mph 3.0 mph 90% 0.00 in
16:16 69.7 °F 66.3 °F 29.92 in NW 5.0 mph 5.0 mph 89% 0.00 in
16:21 68.7 °F 65.7 °F 29.92 in NW 6.0 mph 10.0 mph 90% 0.00 in
16:26 67.9 °F 64.9 °F 29.92 in NNW 6.0 mph 9.0 mph 90% 0.00 in
16:31 67.2 °F 64.5 °F 29.91 in NW 6.0 mph 10.0 mph 91% 0.00 in
16:36 66.7 °F 64.3 °F 29.92 in NNW 4.0 mph 7.0 mph 92% 0.00 in
16:42 66.4 °F 64.3 °F 29.92 in NW 4.0 mph 6.0 mph 93% 0.16 in
16:47 66.2 °F 64.1 °F 29.91 in North 3.0 mph 6.0 mph 93% 0.33 in
16:52 66.4 °F 64.3 °F 29.91 in NNW 3.0 mph 6.0 mph 93% 0.13 in
16:57 66.6 °F 64.5 °F 29.91 in NNE 5.0 mph 6.0 mph 93% 0.11 in
17:02 66.9 °F 64.8 °F 29.91 in NNW 3.0 mph 4.0 mph 93% 0.06 in
17:07 66.9 °F 64.8 °F 29.91 in North 2.0 mph 4.0 mph 93% 0.04 in
17:12 66.9 °F 64.8 °F 29.91 in NNW 3.0 mph 6.0 mph 93% 0.00 in
17:17 67.1 °F 65.0 °F 29.91 in NW 4.0 mph 7.0 mph 93% 0.00 in
17:22 67.3 °F 65.2 °F 29.91 in NW 4.0 mph 7.0 mph 93% 0.00 in
17:27 67.4 °F 65.3 °F 29.91 in NNW 3.0 mph 9.0 mph 93% 0.00 in
17:32 67.5 °F 65.4 °F 29.92 in NNW 3.0 mph 6.0 mph 93% 0.00 in
17:37 67.7 °F 65.6 °F 29.92 in NNW 3.0 mph 5.0 mph 93% 0.00 in
17:43 67.5 °F 65.4 °F 29.91 in WNW 5.0 mph 7.0 mph 93% 0.00 in
17:48 67.4 °F 65.3 °F 29.91 in NW 3.0 mph 8.0 mph 93% 0.00 in
17:53 67.4 °F 65.3 °F 29.91 in NNW 3.0 mph 5.0 mph 93% 0.00 in
17:58 67.5 °F 65.4 °F 29.91 in NW 6.0 mph 6.0 mph 93% 0.00 in
18:03 67.9 °F 65.8 °F 29.91 in NNW 6.0 mph 8.0 mph 93% 0.00 in
18:08 68.3 °F 65.9 °F 29.91 in WNW 4.0 mph 7.0 mph 92% 0.00 in
18:13 68.7 °F 66.3 °F 29.91 in NW 5.0 mph 8.0 mph 92% 0.00 in
18:18 68.4 °F 66.0 °F 29.91 in North 6.0 mph 6.0 mph 92% 0.00 in
18:23 68.3 °F 65.9 °F 29.91 in NW 8.0 mph 9.0 mph 92% 0.00 in
18:28 68.2 °F 65.8 °F 29.91 in North 6.0 mph 7.0 mph 92% 0.00 in
18:33 68.3 °F 65.9 °F 29.91 in NNW 3.0 mph 6.0 mph 92% 0.00 in
18:38 68.5 °F 66.1 °F 29.91 in NW 2.0 mph 7.0 mph 92% 0.00 in
18:43 68.6 °F 66.2 °F 29.91 in North 5.0 mph 6.0 mph 92% 0.00 in
18:48 68.5 °F 65.8 °F 29.91 in NW 11.0 mph 11.0 mph 91% 0.00 in
18:53 68.4 °F 65.7 °F 29.91 in NNW 9.0 mph 9.0 mph 91% 0.00 in
18:58 68.1 °F 65.4 °F 29.91 in NW 7.0 mph 9.0 mph 91% 0.00 in
19:03 67.8 °F 65.1 °F 29.92 in NNW 6.0 mph 7.0 mph 91% 0.00 in
19:08 67.7 °F 65.3 °F 29.92 in NNW 6.0 mph 7.0 mph 92% 0.00 in
19:13 67.7 °F 65.3 °F 29.92 in NW 4.0 mph 7.0 mph 92% 0.00 in
19:18 67.4 °F 64.7 °F 29.92 in NNW 6.0 mph 10.0 mph 91% 0.00 in
19:23 67.3 °F 64.9 °F 29.92 in NNW 3.0 mph 9.0 mph 92% 0.00 in
19:28 67.1 °F 64.7 °F 29.92 in North 6.0 mph 7.0 mph 92% 0.00 in
19:33 66.8 °F 64.4 °F 29.92 in NW 6.0 mph 9.0 mph 92% 0.00 in
19:38 66.6 °F 64.2 °F 29.92 in NW 5.0 mph 8.0 mph 92% 0.00 in
19:43 66.3 °F 63.9 °F 29.92 in WNW 3.0 mph 4.0 mph 92% 0.00 in
19:48 66.2 °F 63.8 °F 29.92 in NW 3.0 mph 5.0 mph 92% 0.00 in
19:53 66.0 °F 63.6 °F 29.92 in NW 4.0 mph 6.0 mph 92% 0.00 in
19:58 65.9 °F 63.5 °F 29.92 in WNW 2.0 mph 4.0 mph 92% 0.00 in
20:03 65.8 °F 63.7 °F 29.92 in WNW 3.0 mph 4.0 mph 93% 0.00 in
20:08 65.7 °F 63.6 °F 29.93 in NW 5.0 mph 6.0 mph 93% 0.00 in
20:13 65.5 °F 63.4 °F 29.93 in NW 7.0 mph 7.0 mph 93% 0.00 in
20:18 65.4 °F 63.3 °F 29.93 in NW 10.0 mph 10.0 mph 93% 0.00 in
20:23 65.2 °F 63.1 °F 29.93 in NNW 8.0 mph 9.0 mph 93% 0.00 in
20:28 65.1 °F 63.0 °F 29.94 in NNW 7.0 mph 8.0 mph 93% 0.00 in
20:33 65.0 °F 62.9 °F 29.94 in NW 4.0 mph 8.0 mph 93% 0.00 in
20:38 64.9 °F 62.8 °F 29.94 in NW 7.0 mph 10.0 mph 93% 0.00 in
20:43 64.7 °F 62.6 °F 29.94 in NW 4.0 mph 7.0 mph 93% 0.00 in
20:48 64.6 °F 62.5 °F 29.94 in NW 4.0 mph 7.0 mph 93% 0.00 in
20:53 64.5 °F 62.4 °F 29.94 in NW 3.0 mph 5.0 mph 93% 0.00 in
20:58 64.4 °F 62.3 °F 29.94 in WNW 2.0 mph 4.0 mph 93% 0.00 in
21:03 64.2 °F 62.1 °F 29.95 in NW 4.0 mph 8.0 mph 93% 0.00 in
21:08 64.0 °F 61.9 °F 29.95 in NW 3.0 mph 7.0 mph 93% 0.00 in
21:13 63.8 °F 61.7 °F 29.95 in NW 4.0 mph 6.0 mph 93% 0.00 in
21:18 63.5 °F 61.4 °F 29.95 in WNW 2.0 mph 6.0 mph 93% 0.00 in
21:24 63.3 °F 61.2 °F 29.95 in NW 8.0 mph 8.0 mph 93% 0.00 in
21:29 63.0 °F 61.0 °F 29.95 in NNW 7.0 mph 7.0 mph 93% 0.00 in
21:34 62.9 °F 60.8 °F 29.95 in NW 4.0 mph 6.0 mph 93% 0.00 in
21:39 62.8 °F 60.8 °F 29.95 in NW 5.0 mph 7.0 mph 93% 0.00 in
21:44 62.7 °F 60.7 °F 29.95 in WNW 5.0 mph 7.0 mph 93% 0.00 in
21:49 62.7 °F 60.7 °F 29.95 in WNW 2.0 mph 4.0 mph 93% 0.00 in
21:54 62.6 °F 60.5 °F 29.95 in NW 2.0 mph 5.0 mph 93% 0.00 in
21:59 62.5 °F 60.5 °F 29.95 in NNW 2.0 mph 5.0 mph 93% 0.00 in
22:04 62.4 °F 60.3 °F 29.95 in NW 4.0 mph 4.0 mph 93% 0.00 in
22:09 62.3 °F 60.2 °F 29.95 in NW 6.0 mph 6.0 mph 93% 0.00 in
22:14 62.3 °F 60.2 °F 29.95 in NNW 2.0 mph 5.0 mph 93% 0.00 in
22:19 62.2 °F 60.2 °F 29.95 in NNW 2.0 mph 6.0 mph 93% 0.00 in
22:24 62.2 °F 60.2 °F 29.95 in WNW 4.0 mph 5.0 mph 93% 0.00 in
22:29 62.0 °F 60.0 °F 29.95 in WNW 2.0 mph 4.0 mph 93% 0.00 in
22:34 61.8 °F 59.8 °F 29.96 in NW 2.0 mph 4.0 mph 93% 0.00 in
22:39 61.7 °F 59.7 °F 29.95 in West 1.0 mph 4.0 mph 93% 0.00 in
22:44 61.6 °F 59.6 °F 29.95 in WNW 2.0 mph 4.0 mph 93% 0.00 in
22:49 61.5 °F 59.8 °F 29.95 in WNW 2.0 mph 3.0 mph 94% 0.00 in
22:54 61.3 °F 59.6 °F 29.95 in NW 1.0 mph 3.0 mph 94% 0.00 in
23:00 61.2 °F 59.5 °F 29.95 in WNW 1.0 mph 2.0 mph 94% 0.00 in
23:05 61.2 °F 59.5 °F 29.96 in NW 1.0 mph 1.0 mph 94% 0.00 in
23:10 61.2 °F 59.5 °F 29.96 in NW 1.0 mph 2.0 mph 94% 0.00 in
23:15 61.1 °F 59.4 °F 29.96 in NW 1.0 mph 1.0 mph 94% 0.00 in
23:20 61.1 °F 59.4 °F 29.95 in NW 1.0 mph 1.0 mph 94% 0.00 in
23:25 61.1 °F 59.4 °F 29.96 in Calm   2.0 mph 94% 0.00 in
23:30 61.1 °F 59.4 °F 29.95 in NNW 1.0 mph 3.0 mph 94% 0.00 in
23:35 61.2 °F 59.5 °F 29.95 in WNW 2.0 mph 2.0 mph 94% 0.00 in
23:36 61.2 °F 59.5 °F 29.95 in NW 2.0 mph 2.0 mph 94% 0.00 in
23:41 61.3 °F 59.6 °F 29.95 in WNW 2.0 mph 3.0 mph 94% 0.00 in
23:46 61.4 °F 59.7 °F 29.95 in NW 1.0 mph 3.0 mph 94% 0.00 in
23:51 61.5 °F 59.8 °F 29.95 in NW 2.0 mph 3.0 mph 94% 0.00 in
23:56 61.6 °F 59.9 °F 29.95 in WNW 1.0 mph 1.0 mph 94% 0.00 in
Compliments of Weather Underground